In Rescue
 
Open Full Screen Window  High Contrast Mode
Wind Gusting 22 knots
15
May 19, 2019 10:55 AM CDT
Weather Information
Wind Direction
  030 °
Wind Speed
  15 kt (17 mph)
Wind Gust
  22 kt (25 mph)
Altimeter
29.91 in
Visibility
10 SM
Temperature
03° C
37° F
Dewpoint
-06° C
21° F
Humidity
52%
1hr Rain Fall
00.00 in.
24hr Rain Fall
00.00 in.
Sky Condition
Scattered @ 6,500 ft
Scattered @ 5,500 ft
VFR

METAR KCKC 191555Z AUTO 03015G22KT 10SM SCT055 SCT065 03/M06 A2991 RMK AO2

FAA Disclaimer: The data displayed is for advisory purposes only and is not to be used for flight planning or operations.